Woodruff, Wisconsin
Current Conditions -  °F | °C
As of 2:15 AM on Tuesday 21 Oct 2014 (Local Time) from KARV Reporting Station
Overcast Overcast  
Wind Chill: 36°   Ceiling: 1700
Heat Index: 42°   Visibility: 10mi
Dew Point: 37°   Wind: 8mph
Humidity: 85%   Direction: 10°N
Pressure: 30.12"   Gusts: NA
Location:  45.9°N, 89.7°W
Report Text: KARV 210715Z AUTO 01007KT 10SM OVC017 05/03 A3012 RMK AO2 T00530029
Loading
Personal Weather Stations






























Interactive Weather Map
Tropical Storm Tracking
New forecast layout! Learn more

10-Day Weather Forecast

Advertisements
Track Severe Weather on mobile